createdAt,value
2022-11-12T00:00:16.746Z,4.07
2022-11-12T00:03:02.416Z,3.10
2022-11-12T00:05:49.476Z,3.70
2022-11-12T00:08:35.381Z,3.05
2022-11-12T00:11:20.660Z,3.17
2022-11-12T00:14:06.286Z,3.47
2022-11-12T00:16:51.609Z,3.83
2022-11-12T00:19:37.089Z,3.33
2022-11-12T00:22:22.906Z,3.20
2022-11-12T00:25:08.470Z,2.90
2022-11-12T00:27:53.924Z,2.75
2022-11-12T00:30:40.902Z,2.95
2022-11-12T00:33:26.330Z,3.13
2022-11-12T00:36:11.984Z,2.75
2022-11-12T00:38:57.282Z,3.72
2022-11-12T00:41:42.931Z,3.15
2022-11-12T00:44:29.485Z,2.88
2022-11-12T00:47:14.825Z,2.80
2022-11-12T00:50:00.563Z,3.10
2022-11-12T00:52:45.955Z,3.00
2022-11-12T00:55:31.419Z,3.15
2022-11-12T00:58:16.771Z,2.83
2022-11-12T01:01:08.557Z,2.70
2022-11-12T01:03:54.054Z,2.65
2022-11-12T01:06:41.114Z,2.47
2022-11-12T01:09:26.370Z,3.15
2022-11-12T01:12:11.650Z,2.97
2022-11-12T01:14:57.036Z,3.58
2022-11-12T01:17:42.361Z,2.58
2022-11-12T01:20:27.782Z,2.67
2022-11-12T01:23:13.098Z,2.47
2022-11-12T01:25:58.614Z,2.35
2022-11-12T01:28:44.165Z,2.60
2022-11-12T01:31:32.735Z,2.67
2022-11-12T01:34:17.950Z,2.20
2022-11-12T01:37:03.227Z,2.25
2022-11-12T01:39:48.673Z,2.22
2022-11-12T01:42:34.183Z,2.03
2022-11-12T01:45:19.989Z,2.10
2022-11-12T01:48:05.334Z,1.90
2022-11-12T01:50:51.501Z,2.63
2022-11-12T01:53:43.717Z,3.17
2022-11-12T01:59:29.223Z,2.47
2022-11-12T02:02:14.752Z,2.08
2022-11-12T02:05:01.713Z,2.55
2022-11-12T02:07:48.000Z,2.10
2022-11-12T02:10:34.965Z,2.08
2022-11-12T02:13:39.377Z,2.42
2022-11-12T02:16:37.996Z,2.45
2022-11-12T02:19:23.334Z,1.90
2022-11-12T02:22:08.710Z,1.88
2022-11-12T02:24:54.393Z,2.08
2022-11-12T02:27:39.818Z,1.73
2022-11-12T02:30:39.081Z,1.77
2022-11-12T02:33:24.215Z,1.70
2022-11-12T02:36:09.628Z,2.45
2022-11-12T02:38:55.308Z,2.08
2022-11-12T02:41:40.835Z,1.92
2022-11-12T02:44:26.498Z,1.65
2022-11-12T02:47:11.758Z,2.08
2022-11-12T02:49:57.107Z,1.75
2022-11-12T02:52:42.511Z,1.35
2022-11-12T02:55:27.996Z,2.10
2022-11-12T02:58:13.389Z,2.13
2022-11-12T03:00:59.085Z,2.03
2022-11-12T03:03:44.360Z,1.98
2022-11-12T03:06:29.734Z,1.42
2022-11-12T03:09:15.174Z,1.58
2022-11-12T03:12:00.504Z,1.73
2022-11-12T03:14:46.059Z,1.70
2022-11-12T03:17:31.327Z,1.83
2022-11-12T03:20:16.943Z,1.90
2022-11-12T03:23:05.750Z,1.77
2022-11-12T03:25:50.829Z,1.63
2022-11-12T03:28:36.258Z,1.83
2022-11-12T03:31:21.617Z,1.55
2022-11-12T03:34:06.966Z,1.63
2022-11-12T03:36:52.322Z,1.80
2022-11-12T03:39:37.744Z,2.03
2022-11-12T03:42:23.237Z,1.25
2022-11-12T03:45:08.795Z,1.50
2022-11-12T03:47:56.647Z,1.65
2022-11-12T03:50:42.142Z,1.92
2022-11-12T03:53:27.663Z,1.65
2022-11-12T03:56:13.044Z,1.40
2022-11-12T03:58:58.364Z,1.83
2022-11-12T04:01:43.836Z,1.50
2022-11-12T04:04:49.184Z,1.23
2022-11-12T04:07:52.699Z,1.48
2022-11-12T04:10:37.914Z,1.60
2022-11-12T04:13:29.110Z,1.40
2022-11-12T04:16:38.385Z,1.43
2022-11-12T04:19:42.483Z,1.33
2022-11-12T04:22:27.968Z,1.50
2022-11-12T04:25:31.887Z,1.40
2022-11-12T04:28:17.367Z,1.98
2022-11-12T04:31:03.121Z,1.80
2022-11-12T04:33:48.442Z,1.50
2022-11-12T04:36:33.964Z,1.40
2022-11-12T04:39:19.276Z,1.40
2022-11-12T04:42:23.565Z,1.42
2022-11-12T04:45:10.408Z,1.35
2022-11-12T04:47:55.654Z,1.70
2022-11-12T04:50:43.330Z,1.30
2022-11-12T04:53:30.460Z,1.50
2022-11-12T04:56:15.518Z,1.60
2022-11-12T04:59:00.896Z,1.50
2022-11-12T05:01:46.221Z,1.70
2022-11-12T05:04:31.585Z,1.42
2022-11-12T05:07:17.664Z,1.77
2022-11-12T05:10:03.242Z,1.70
2022-11-12T05:12:48.473Z,1.23
2022-11-12T05:15:33.957Z,1.20
2022-11-12T05:18:19.373Z,1.60
2022-11-12T05:21:25.107Z,1.30
2022-11-12T05:24:22.454Z,1.60
2022-11-12T05:27:20.780Z,1.40
2022-11-12T05:30:06.582Z,1.75
2022-11-12T05:32:52.103Z,1.60
2022-11-12T05:35:37.613Z,1.52
2022-11-12T05:38:23.151Z,1.40
2022-11-12T05:41:08.435Z,1.20
2022-11-12T05:43:53.892Z,1.30
2022-11-12T05:46:39.420Z,1.48
2022-11-12T05:49:25.129Z,1.40
2022-11-12T05:52:10.291Z,3.10
2022-11-12T05:54:55.750Z,1.25
2022-11-12T05:57:41.034Z,1.17
2022-11-12T06:00:26.342Z,1.10
2022-11-12T06:03:12.522Z,1.52
2022-11-12T06:05:57.869Z,1.20
2022-11-12T06:08:43.419Z,1.40
2022-11-12T06:11:28.761Z,1.48
2022-11-12T06:14:14.325Z,1.77
2022-11-12T06:16:59.675Z,1.30
2022-11-12T06:19:45.166Z,1.50
2022-11-12T06:22:30.726Z,2.00
2022-11-12T06:25:17.397Z,1.88
2022-11-12T06:28:02.585Z,1.20
2022-11-12T06:30:47.923Z,1.10
2022-11-12T06:33:33.419Z,1.80
2022-11-12T06:36:20.513Z,2.15
2022-11-12T06:39:05.870Z,1.77
2022-11-12T06:41:51.299Z,2.15
2022-11-12T06:44:36.664Z,1.20
2022-11-12T06:47:22.232Z,1.60
2022-11-12T06:50:07.989Z,1.55
2022-11-12T06:52:58.633Z,1.40
2022-11-12T06:55:44.074Z,2.28
2022-11-12T06:58:29.747Z,2.08
2022-11-12T07:01:16.582Z,2.30
2022-11-12T07:04:02.027Z,1.85
2022-11-12T07:06:47.567Z,1.90
2022-11-12T07:09:33.022Z,1.98
2022-11-12T07:12:18.503Z,1.70
2022-11-12T07:15:03.961Z,2.10
2022-11-12T07:17:49.218Z,1.58
2022-11-12T07:20:35.074Z,1.50
2022-11-12T07:23:20.460Z,1.70
2022-11-12T07:26:17.851Z,1.55
2022-11-12T07:29:03.032Z,1.45
2022-11-12T07:31:48.146Z,1.30
2022-11-12T07:34:33.432Z,1.63
2022-11-12T07:37:18.874Z,1.35
2022-11-12T07:40:05.230Z,1.58
2022-11-12T07:42:50.962Z,1.60
2022-11-12T07:45:36.200Z,1.60
2022-11-12T07:48:21.574Z,1.60
2022-11-12T07:51:13.141Z,1.52
2022-11-12T07:54:00.024Z,1.30
2022-11-12T07:56:45.467Z,1.20
2022-11-12T07:59:31.097Z,1.70
2022-11-12T08:02:16.462Z,1.85
2022-11-12T08:05:01.771Z,2.97
2022-11-12T08:07:47.459Z,2.85
2022-11-12T08:10:32.723Z,3.75
2022-11-12T08:13:18.180Z,2.75
2022-11-12T08:16:03.855Z,2.78
2022-11-12T08:18:49.788Z,4.47
2022-11-12T08:21:35.093Z,5.75
2022-11-12T08:24:20.594Z,6.18
2022-11-12T08:27:06.047Z,7.15
2022-11-12T08:29:51.471Z,7.00
2022-11-12T08:32:36.698Z,3.92
2022-11-12T08:35:22.134Z,3.10
2022-11-12T08:38:10.852Z,3.30
2022-11-12T08:40:59.505Z,3.60
2022-11-12T08:43:45.056Z,3.00
2022-11-12T08:46:30.568Z,2.40
2022-11-12T08:49:15.881Z,2.47
2022-11-12T08:52:01.367Z,1.48
2022-11-12T08:54:46.617Z,1.55
2022-11-12T08:57:31.950Z,1.65
2022-11-12T09:00:18.010Z,1.40
2022-11-12T09:03:04.793Z,1.67
2022-11-12T09:05:50.707Z,1.30
2022-11-12T09:08:36.927Z,1.73
2022-11-12T09:11:22.254Z,2.20
2022-11-12T09:14:07.703Z,1.58
2022-11-12T09:16:52.969Z,2.55
2022-11-12T09:19:43.005Z,2.20
2022-11-12T09:22:28.683Z,2.22
2022-11-12T09:25:14.151Z,2.45
2022-11-12T09:28:13.277Z,1.90
2022-11-12T09:30:59.598Z,2.20
2022-11-12T09:33:45.229Z,2.45
2022-11-12T09:36:31.958Z,2.00
2022-11-12T09:39:19.849Z,2.30
2022-11-12T09:42:14.004Z,2.10
2022-11-12T09:45:08.194Z,2.33
2022-11-12T09:48:02.053Z,2.42
2022-11-12T09:50:53.652Z,2.08
2022-11-12T09:54:13.891Z,2.83
2022-11-12T09:56:59.339Z,2.67
2022-11-12T09:59:44.987Z,2.28
2022-11-12T10:02:42.715Z,1.85
2022-11-12T10:05:40.834Z,2.00
2022-11-12T10:08:44.951Z,5.03
2022-11-12T10:12:13.092Z,3.25
2022-11-12T10:15:55.503Z,2.13
2022-11-12T10:18:56.823Z,1.80
2022-11-12T10:21:54.790Z,2.50
2022-11-12T10:24:41.815Z,2.40
2022-11-12T10:27:38.561Z,2.03
2022-11-12T10:30:25.501Z,2.20
2022-11-12T10:33:16.727Z,2.45
2022-11-12T10:36:14.043Z,1.95
2022-11-12T10:38:59.676Z,2.10
2022-11-12T10:41:45.083Z,1.95
2022-11-12T10:44:30.535Z,2.20
2022-11-12T10:47:54.301Z,1.90
2022-11-12T10:50:42.065Z,2.65
2022-11-12T10:53:37.653Z,4.20
2022-11-12T10:56:31.159Z,4.47
2022-11-12T10:59:19.645Z,4.80
2022-11-12T11:02:17.547Z,4.60
2022-11-12T11:05:29.616Z,4.55
2022-11-12T11:11:31.950Z,4.50
2022-11-12T11:14:23.414Z,4.22
2022-11-12T11:17:18.671Z,3.47
2022-11-12T11:20:19.357Z,2.60
2022-11-12T11:23:28.873Z,3.13
2022-11-12T11:26:29.420Z,3.13
2022-11-12T11:29:21.366Z,3.53
2022-11-12T11:35:07.322Z,2.95
2022-11-12T11:38:13.213Z,2.78
2022-11-12T11:41:37.291Z,2.90
2022-11-12T11:44:49.504Z,2.72
2022-11-12T11:48:00.395Z,1.60
2022-11-12T11:53:57.226Z,1.92
2022-11-12T11:56:44.364Z,1.98
2022-11-12T11:59:38.685Z,2.40
2022-11-12T12:02:34.661Z,1.98
2022-11-12T12:05:29.741Z,2.13
2022-11-12T12:08:25.652Z,1.45
2022-11-12T12:11:22.641Z,1.75
2022-11-12T12:14:18.153Z,2.25
2022-11-12T12:17:51.091Z,1.83
2022-11-12T12:20:51.456Z,2.25
2022-11-12T12:23:48.380Z,2.08
2022-11-12T12:26:44.126Z,2.50
2022-11-12T12:29:53.708Z,2.22
2022-11-12T12:32:44.806Z,2.42
2022-11-12T12:35:44.366Z,2.50
2022-11-12T12:38:44.078Z,2.40
2022-11-12T12:41:49.636Z,3.00
2022-11-12T12:45:01.152Z,3.35
2022-11-12T12:47:48.263Z,3.47
2022-11-12T12:50:36.634Z,2.70
2022-11-12T12:53:22.227Z,2.58
2022-11-12T12:56:30.497Z,2.95
2022-11-12T12:59:23.610Z,6.15
2022-11-12T13:02:25.419Z,5.32
2022-11-12T13:05:32.843Z,2.70
2022-11-12T13:08:25.986Z,2.42
2022-11-12T13:12:00.473Z,2.38
2022-11-12T13:14:52.160Z,2.45
2022-11-12T13:17:48.730Z,2.28
2022-11-12T13:20:36.813Z,2.20
2022-11-12T13:24:09.106Z,2.95
2022-11-12T13:26:59.246Z,2.50
2022-11-12T13:29:46.938Z,2.70
2022-11-12T13:32:53.975Z,2.70
2022-11-12T13:35:39.708Z,3.35
2022-11-12T13:38:26.327Z,3.55
2022-11-12T13:41:19.453Z,3.53
2022-11-12T13:44:08.751Z,3.60
2022-11-12T13:46:55.743Z,3.15
2022-11-12T13:49:43.634Z,2.78
2022-11-12T13:52:29.239Z,2.97
2022-11-12T13:55:22.331Z,3.38
2022-11-12T13:58:19.666Z,3.70
2022-11-12T14:01:07.228Z,3.60
2022-11-12T14:03:53.307Z,4.55
2022-11-12T14:06:42.990Z,7.70
2022-11-12T14:09:34.975Z,8.25
2022-11-12T14:15:25.097Z,8.55
2022-11-12T14:18:29.288Z,9.18
2022-11-12T14:21:17.379Z,9.77
2022-11-12T14:24:04.365Z,9.55
2022-11-12T14:26:50.013Z,5.28
2022-11-12T14:29:38.821Z,4.80
2022-11-12T14:32:26.457Z,4.75
2022-11-12T14:35:26.355Z,5.97
2022-11-12T14:38:19.919Z,4.32
2022-11-12T14:41:25.156Z,5.35
2022-11-12T14:44:17.953Z,4.82
2022-11-12T14:47:04.028Z,6.45
2022-11-12T14:49:50.270Z,8.20
2022-11-12T14:52:42.018Z,10.60
2022-11-12T14:55:32.255Z,9.52
2022-11-12T14:58:19.543Z,13.18
2022-11-12T15:04:50.810Z,12.88
2022-11-12T15:07:53.447Z,11.50
2022-11-12T15:10:41.303Z,8.02
2022-11-12T15:13:27.637Z,6.20
2022-11-12T15:16:21.228Z,6.38
2022-11-12T15:19:15.500Z,5.50
2022-11-12T15:22:02.417Z,4.68
2022-11-12T15:24:49.455Z,4.07
2022-11-12T15:27:38.486Z,4.32
2022-11-12T15:30:31.995Z,3.30
2022-11-12T15:33:23.547Z,4.10
2022-11-12T15:36:21.207Z,3.30
2022-11-12T15:39:13.335Z,3.42
2022-11-12T15:45:15.415Z,3.63
2022-11-12T15:48:00.855Z,4.25
2022-11-12T15:50:46.838Z,5.00
2022-11-12T15:53:32.269Z,3.90
2022-11-12T15:56:21.959Z,3.83
2022-11-12T15:59:09.631Z,4.00
2022-11-12T16:01:55.109Z,3.80
2022-11-12T16:04:40.490Z,4.20
2022-11-12T16:07:26.007Z,4.40
2022-11-12T16:10:16.506Z,5.55
2022-11-12T16:13:03.133Z,4.45
2022-11-12T16:15:51.507Z,6.60
2022-11-12T16:18:37.038Z,5.60
2022-11-12T16:21:22.551Z,5.65
2022-11-12T16:24:08.427Z,5.25
2022-11-12T16:26:53.897Z,3.92
2022-11-12T16:29:39.545Z,4.85
2022-11-12T16:32:25.332Z,5.18
2022-11-12T16:35:11.024Z,5.03
2022-11-12T16:37:56.118Z,4.88
2022-11-12T16:40:42.836Z,7.20
2022-11-12T16:43:28.293Z,7.93
2022-11-12T16:46:36.130Z,8.57
2022-11-12T16:49:21.568Z,7.75
2022-11-12T16:52:09.689Z,7.32
2022-11-12T16:54:57.923Z,7.00
2022-11-12T17:00:32.371Z,7.55
2022-11-12T17:03:17.975Z,8.20
2022-11-12T17:06:03.824Z,8.20
2022-11-12T17:08:52.903Z,7.85
2022-11-12T17:11:38.856Z,8.07
2022-11-12T17:14:28.099Z,8.70
2022-11-12T17:17:13.847Z,10.07
2022-11-12T17:19:59.379Z,11.40
2022-11-12T17:22:45.208Z,13.32
2022-11-12T17:25:30.453Z,11.52
2022-11-12T17:28:15.946Z,9.77
2022-11-12T17:31:15.907Z,8.68
2022-11-12T17:34:01.270Z,8.35
2022-11-12T17:36:46.829Z,8.65
2022-11-12T17:39:32.325Z,9.10
2022-11-12T17:42:17.851Z,9.45
2022-11-12T17:45:08.312Z,9.00
2022-11-12T17:47:54.027Z,10.07
2022-11-12T17:50:39.456Z,9.82
2022-11-12T17:53:25.761Z,9.23
2022-11-12T17:56:14.828Z,8.93
2022-11-12T17:59:02.059Z,9.57
2022-11-12T18:01:47.375Z,8.65
2022-11-12T18:04:33.020Z,8.68
2022-11-12T18:07:18.595Z,9.07
2022-11-12T18:10:04.238Z,8.13
2022-11-12T18:12:51.554Z,8.20
2022-11-12T18:15:38.537Z,8.32
2022-11-12T18:18:24.623Z,8.75
2022-11-12T18:21:10.509Z,10.10
2022-11-12T18:23:55.941Z,8.30
2022-11-12T18:26:41.680Z,8.63
2022-11-12T18:29:27.049Z,8.32
2022-11-12T18:32:13.598Z,8.82
2022-11-12T18:34:58.910Z,8.00
2022-11-12T18:37:44.652Z,7.50
2022-11-12T18:40:30.334Z,7.57
2022-11-12T18:43:15.754Z,7.93
2022-11-12T18:46:01.492Z,7.07
2022-11-12T18:48:47.507Z,7.00
2022-11-12T18:51:33.051Z,7.15
2022-11-12T18:54:18.626Z,7.15
2022-11-12T18:57:04.199Z,6.95
2022-11-12T18:59:52.084Z,7.82
2022-11-12T19:02:37.426Z,8.07
2022-11-12T19:05:22.767Z,8.73
2022-11-12T19:08:08.307Z,9.50
2022-11-12T19:11:05.308Z,9.98
2022-11-12T19:13:52.814Z,10.50
2022-11-12T19:16:42.415Z,10.80
2022-11-12T19:19:27.643Z,10.02
2022-11-12T19:22:13.209Z,10.48
2022-11-12T19:24:58.642Z,11.65
2022-11-12T19:27:44.051Z,9.80
2022-11-12T19:30:29.644Z,10.27
2022-11-12T19:33:15.232Z,9.70
2022-11-12T19:36:06.708Z,10.93
2022-11-12T19:39:00.814Z,10.98
2022-11-12T19:41:46.199Z,10.05
2022-11-12T19:44:31.846Z,11.10
2022-11-12T19:47:17.218Z,9.40
2022-11-12T19:50:02.766Z,7.88
2022-11-12T19:52:48.058Z,8.45
2022-11-12T19:55:39.602Z,7.68
2022-11-12T19:58:25.613Z,7.97
2022-11-12T20:01:13.421Z,9.00
2022-11-12T20:03:58.888Z,8.57
2022-11-12T20:06:44.515Z,7.72
2022-11-12T20:09:30.100Z,6.88
2022-11-12T20:12:15.738Z,6.72
2022-11-12T20:15:01.264Z,8.18
2022-11-12T20:17:46.781Z,6.68
2022-11-12T20:20:32.433Z,6.47
2022-11-12T20:23:17.992Z,7.28
2022-11-12T20:26:09.774Z,6.30
2022-11-12T20:28:55.294Z,6.53
2022-11-12T20:31:41.950Z,5.75
2022-11-12T20:34:27.193Z,7.05
2022-11-12T20:37:12.834Z,6.38
2022-11-12T20:39:58.930Z,5.95
2022-11-12T20:42:45.889Z,6.93
2022-11-12T20:45:31.222Z,7.85
2022-11-12T20:48:16.731Z,7.72
2022-11-12T20:51:22.617Z,6.72
2022-11-12T20:54:10.214Z,6.63
2022-11-12T20:56:56.093Z,4.93
2022-11-12T20:59:41.269Z,5.85
2022-11-12T21:02:26.653Z,5.63
2022-11-12T21:05:13.844Z,6.53
2022-11-12T21:07:59.039Z,6.78
2022-11-12T21:10:48.981Z,9.57
2022-11-12T21:13:35.600Z,8.57
2022-11-12T21:16:20.949Z,7.57
2022-11-12T21:19:06.807Z,6.80
2022-11-12T21:21:52.230Z,4.78
2022-11-12T21:24:37.674Z,6.25
2022-11-12T21:27:23.106Z,6.30
2022-11-12T21:30:09.205Z,5.35
2022-11-12T21:32:54.433Z,5.35
2022-11-12T21:35:40.170Z,5.90
2022-11-12T21:38:30.079Z,6.03
2022-11-12T21:41:18.912Z,5.03
2022-11-12T21:44:04.311Z,5.22
2022-11-12T21:46:49.802Z,5.70
2022-11-12T21:49:35.366Z,5.53
2022-11-12T21:52:20.785Z,4.85
2022-11-12T21:55:07.103Z,5.03
2022-11-12T21:57:52.686Z,4.53
2022-11-12T22:00:42.412Z,6.25
2022-11-12T22:03:30.719Z,5.15
2022-11-12T22:06:17.134Z,5.50
2022-11-12T22:09:03.029Z,4.68
2022-11-12T22:11:48.181Z,4.68
2022-11-12T22:14:33.670Z,5.80
2022-11-12T22:17:19.018Z,5.10
2022-11-12T22:20:05.064Z,4.13
2022-11-12T22:22:51.791Z,3.90
2022-11-12T22:25:36.983Z,4.35
2022-11-12T22:28:22.674Z,4.72
2022-11-12T22:31:14.203Z,5.85
2022-11-12T22:34:01.606Z,5.50
2022-11-12T22:36:47.050Z,3.80
2022-11-12T22:39:32.487Z,4.85
2022-11-12T22:42:17.869Z,5.20
2022-11-12T22:45:03.589Z,4.22
2022-11-12T22:47:48.911Z,4.43
2022-11-12T22:50:34.502Z,4.47
2022-11-12T22:53:19.830Z,4.70
2022-11-12T22:56:09.212Z,4.85
2022-11-12T22:58:55.323Z,3.80
2022-11-12T23:01:40.812Z,5.05
2022-11-12T23:04:26.244Z,3.75
2022-11-12T23:07:11.836Z,3.25
2022-11-12T23:09:57.100Z,2.95
2022-11-12T23:12:42.523Z,3.00
2022-11-12T23:15:31.604Z,3.03
2022-11-12T23:18:17.055Z,3.03
2022-11-12T23:21:14.325Z,2.83
2022-11-12T23:23:59.878Z,3.55
2022-11-12T23:26:45.015Z,2.88
2022-11-12T23:29:30.343Z,3.60
2022-11-12T23:32:15.692Z,3.85
2022-11-12T23:35:01.191Z,2.75
2022-11-12T23:37:46.466Z,3.13
2022-11-12T23:40:31.983Z,2.60
2022-11-12T23:43:17.351Z,2.97
2022-11-12T23:46:02.974Z,3.22
2022-11-12T23:48:48.569Z,3.35
2022-11-12T23:51:33.564Z,3.03
2022-11-12T23:54:19.082Z,2.78
2022-11-12T23:57:04.589Z,2.95
2022-11-12T23:59:50.087Z,2.20
